createdAt,value
2023-05-24T00:00:50.753Z,98148.31
2023-05-24T00:02:16.054Z,98150.78
2023-05-24T00:04:00.330Z,98164.82
2023-05-24T00:05:32.780Z,98158.90
2023-05-24T00:06:54.090Z,98157.96
2023-05-24T00:08:16.608Z,98152.67
2023-05-24T00:09:48.360Z,98154.14
2023-05-24T00:11:16.670Z,98153.62
2023-05-24T00:12:36.926Z,98152.30
2023-05-24T00:13:59.465Z,98146.76
2023-05-24T00:15:31.540Z,98147.27
2023-05-24T00:16:52.171Z,98145.57
2023-05-24T00:18:24.153Z,98146.52
2023-05-24T00:19:58.211Z,98122.91
2023-05-24T00:21:30.224Z,98144.71
2023-05-24T00:23:02.643Z,98138.91
2023-05-24T00:24:22.857Z,98144.41
2023-05-24T00:25:45.796Z,98147.35
2023-05-24T00:27:20.348Z,98140.52
2023-05-24T00:28:40.613Z,98141.88
2023-05-24T00:30:10.441Z,98141.25
2023-05-24T00:31:42.302Z,98143.20
2023-05-24T00:33:06.322Z,98139.39
2023-05-24T00:34:29.473Z,98135.06
2023-05-24T00:36:05.387Z,98142.78
2023-05-24T00:37:26.943Z,98143.76
2023-05-24T00:38:55.334Z,98148.20
2023-05-24T00:40:34.442Z,98147.42
2023-05-24T00:42:11.438Z,98151.61
2023-05-24T00:43:53.517Z,98151.26
2023-05-24T00:45:13.823Z,98154.18
2023-05-24T00:46:34.952Z,98150.02
2023-05-24T00:48:06.704Z,98150.62
2023-05-24T00:49:43.714Z,98152.38
2023-05-24T00:51:15.652Z,98154.41
2023-05-24T00:52:39.098Z,98153.96
2023-05-24T00:54:19.214Z,98160.61
2023-05-24T00:56:02.758Z,98160.67
2023-05-24T00:57:24.551Z,98161.86
2023-05-24T00:58:45.286Z,98159.77
2023-05-24T01:00:24.225Z,98160.05
2023-05-24T01:02:04.123Z,98160.46
2023-05-24T01:03:36.942Z,98164.27
2023-05-24T01:05:12.772Z,98168.77
2023-05-24T01:06:35.587Z,98170.96
2023-05-24T01:08:18.449Z,98169.36
2023-05-24T01:09:57.898Z,98165.88
2023-05-24T01:11:41.548Z,98159.70
2023-05-24T01:13:13.455Z,98157.92
2023-05-24T01:14:36.133Z,98158.28
2023-05-24T01:16:10.129Z,98158.65
2023-05-24T01:17:45.541Z,98160.59
2023-05-24T01:19:38.408Z,98164.16
2023-05-24T01:21:22.634Z,98162.39
2023-05-24T01:23:14.783Z,98160.30
2023-05-24T01:24:37.731Z,98160.89
2023-05-24T01:26:21.501Z,98161.16
2023-05-24T01:28:05.609Z,98159.13
2023-05-24T01:29:40.104Z,98162.92
2023-05-24T01:31:12.733Z,98158.14
2023-05-24T01:32:40.544Z,98153.68
2023-05-24T01:34:08.370Z,98156.14
2023-05-24T01:35:42.554Z,98156.33
2023-05-24T01:37:26.220Z,98156.44
2023-05-24T01:38:58.129Z,98156.56
2023-05-24T01:40:42.174Z,98158.15
2023-05-24T01:42:14.898Z,98157.68
2023-05-24T01:43:58.872Z,98163.90
2023-05-24T01:45:21.775Z,98166.48
2023-05-24T01:47:05.325Z,98169.45
2023-05-24T01:48:37.862Z,98170.46
2023-05-24T01:50:10.084Z,98170.75
2023-05-24T01:51:37.712Z,98175.84
2023-05-24T01:53:05.602Z,98179.20
2023-05-24T01:54:28.192Z,98180.80
2023-05-24T01:56:02.332Z,98180.80
2023-05-24T01:57:25.120Z,98186.79
2023-05-24T01:59:00.219Z,98185.92
2023-05-24T02:00:32.358Z,98184.52
2023-05-24T02:02:16.375Z,98185.84
2023-05-24T02:04:08.873Z,98183.09
2023-05-24T02:05:48.680Z,98181.52
2023-05-24T02:07:23.395Z,98168.61
2023-05-24T02:09:06.966Z,98176.86
2023-05-24T02:10:46.917Z,98177.86
2023-05-24T02:12:18.988Z,98174.36
2023-05-24T02:13:39.478Z,98180.51
2023-05-24T02:15:31.878Z,98174.38
2023-05-24T02:17:15.511Z,98177.59
2023-05-24T02:18:45.994Z,98179.95
2023-05-24T02:20:20.492Z,98181.45
2023-05-24T02:22:04.186Z,98182.36
2023-05-24T02:23:48.421Z,98176.19
2023-05-24T02:25:20.830Z,98176.80
2023-05-24T02:27:04.448Z,98178.91
2023-05-24T02:28:29.324Z,98175.27
2023-05-24T02:30:12.620Z,98177.81
2023-05-24T02:31:56.406Z,98178.53
2023-05-24T02:33:30.398Z,98181.50
2023-05-24T02:34:58.624Z,98181.84
2023-05-24T02:36:38.166Z,98183.03
2023-05-24T02:38:01.868Z,98185.77
2023-05-24T02:39:45.312Z,98189.86
2023-05-24T02:41:17.110Z,98189.38
2023-05-24T02:42:51.325Z,98193.31
2023-05-24T02:44:11.939Z,98194.67
2023-05-24T02:45:51.865Z,98198.16
2023-05-24T02:47:33.088Z,98199.80
2023-05-24T02:49:25.265Z,98199.48
2023-05-24T02:51:11.135Z,98197.83
2023-05-24T02:52:45.542Z,98193.70
2023-05-24T02:54:34.222Z,98199.48
2023-05-24T02:56:26.930Z,98196.70
2023-05-24T02:57:59.239Z,98197.12
2023-05-24T02:59:25.523Z,98196.71
2023-05-24T03:01:00.845Z,98187.21
2023-05-24T03:02:41.775Z,98195.47
2023-05-24T03:04:25.628Z,98194.73
2023-05-24T03:06:09.265Z,98200.52
2023-05-24T03:07:50.584Z,98200.58
2023-05-24T03:09:15.598Z,98203.80
2023-05-24T03:10:50.284Z,98199.80
2023-05-24T03:12:22.285Z,98206.77
2023-05-24T03:14:10.401Z,98202.70
2023-05-24T03:15:41.097Z,98206.73
2023-05-24T03:17:13.046Z,98207.79
2023-05-24T03:18:43.612Z,98203.45
2023-05-24T03:20:20.699Z,98209.79
2023-05-24T03:22:04.524Z,98198.51
2023-05-24T03:23:32.552Z,98215.14
2023-05-24T03:25:19.496Z,98215.45
2023-05-24T03:26:52.249Z,98218.25
2023-05-24T03:28:36.340Z,98218.62
2023-05-24T03:30:20.574Z,98220.29
2023-05-24T03:31:49.292Z,98224.49
2023-05-24T03:33:21.729Z,98222.00
2023-05-24T03:35:05.573Z,98224.59
2023-05-24T03:36:49.588Z,98227.25
2023-05-24T03:38:38.586Z,98228.42
2023-05-24T03:40:06.244Z,98224.74
2023-05-24T03:41:39.363Z,98231.23
2023-05-24T03:43:32.469Z,98233.40
2023-05-24T03:44:58.790Z,98229.23
2023-05-24T03:46:43.441Z,98233.42
2023-05-24T03:48:18.080Z,98232.05
2023-05-24T03:49:50.404Z,98232.98
2023-05-24T03:51:28.673Z,98235.66
2023-05-24T03:53:02.914Z,98236.23
2023-05-24T03:54:42.448Z,98236.93
2023-05-24T03:56:14.043Z,98237.08
2023-05-24T03:57:48.555Z,98238.15
2023-05-24T03:59:22.669Z,98236.86
2023-05-24T04:01:29.134Z,98238.48
2023-05-24T04:03:12.484Z,98241.20
2023-05-24T04:04:48.134Z,98241.23
2023-05-24T04:06:32.084Z,98241.87
2023-05-24T04:08:15.830Z,98244.48
2023-05-24T04:09:59.569Z,98242.98
2023-05-24T04:11:31.839Z,98240.38
2023-05-24T04:13:03.548Z,98244.98
2023-05-24T04:14:30.847Z,98242.70
2023-05-24T04:15:54.064Z,98249.46
2023-05-24T04:17:32.249Z,98249.42
2023-05-24T04:19:06.405Z,98254.25
2023-05-24T04:20:46.043Z,98251.54
2023-05-24T04:22:26.175Z,98257.63
2023-05-24T04:24:00.815Z,98257.49
2023-05-24T04:25:35.218Z,98266.14
2023-05-24T04:27:09.459Z,98266.64
2023-05-24T04:28:41.797Z,98266.13
2023-05-24T04:30:13.919Z,98263.05
2023-05-24T04:31:48.623Z,98271.20
2023-05-24T04:33:23.037Z,98273.95
2023-05-24T04:34:55.018Z,98272.88
2023-05-24T04:36:39.945Z,98272.46
2023-05-24T04:38:23.719Z,98272.23
2023-05-24T04:39:58.257Z,98277.44
2023-05-24T04:41:23.162Z,98268.98
2023-05-24T04:42:48.611Z,98278.42
2023-05-24T04:44:09.197Z,98275.95
2023-05-24T04:45:33.106Z,98279.20
2023-05-24T04:46:57.225Z,98279.02
2023-05-24T04:48:29.716Z,98277.98
2023-05-24T04:50:01.836Z,98281.63
2023-05-24T04:51:41.638Z,98282.21
2023-05-24T04:53:21.081Z,98287.89
2023-05-24T04:54:43.856Z,98288.48
2023-05-24T04:56:27.945Z,98290.95
2023-05-24T04:57:48.663Z,98288.20
2023-05-24T04:59:14.560Z,98293.57
2023-05-24T05:00:58.393Z,98293.16
2023-05-24T05:02:32.793Z,98292.69
2023-05-24T05:03:53.686Z,98288.05
2023-05-24T05:05:25.584Z,98294.59
2023-05-24T05:06:48.629Z,98300.64
2023-05-24T05:08:21.070Z,98300.75
2023-05-24T05:09:53.506Z,98300.42
2023-05-24T05:11:14.235Z,98303.77
2023-05-24T05:12:35.023Z,98301.87
2023-05-24T05:13:57.280Z,98302.75
2023-05-24T05:15:32.500Z,98301.81
2023-05-24T05:17:16.310Z,98307.77
2023-05-24T05:18:44.486Z,98311.52
2023-05-24T05:20:07.209Z,98313.66
2023-05-24T05:21:27.725Z,98320.98
2023-05-24T05:23:11.358Z,98317.73
2023-05-24T05:24:31.634Z,98321.63
2023-05-24T05:26:06.065Z,98311.71
2023-05-24T05:27:28.613Z,98321.99
2023-05-24T05:29:03.160Z,98321.38
2023-05-24T05:30:35.621Z,98317.79
2023-05-24T05:31:58.194Z,98324.98
2023-05-24T05:33:30.244Z,98327.18
2023-05-24T05:34:50.885Z,98325.36
2023-05-24T05:36:22.944Z,98325.65
2023-05-24T05:37:51.109Z,98330.80
2023-05-24T05:39:11.590Z,98334.45
2023-05-24T05:40:39.694Z,98338.23
2023-05-24T05:42:02.511Z,98340.56
2023-05-24T05:43:25.636Z,98341.93
2023-05-24T05:44:46.486Z,98341.95
2023-05-24T05:46:10.454Z,98341.39
2023-05-24T05:47:42.805Z,98343.98
2023-05-24T05:49:22.866Z,98344.09
2023-05-24T05:50:50.640Z,98342.77
2023-05-24T05:52:34.336Z,98349.34
2023-05-24T05:54:08.145Z,98349.61
2023-05-24T05:55:28.653Z,98346.86
2023-05-24T05:56:51.621Z,98346.98
2023-05-24T05:58:11.929Z,98344.85
2023-05-24T05:59:35.434Z,98348.11
2023-05-24T06:01:03.223Z,98351.84
2023-05-24T06:02:35.295Z,98347.34
2023-05-24T06:04:02.810Z,98353.00
2023-05-24T06:05:23.467Z,98349.55
2023-05-24T06:06:56.247Z,98352.68
2023-05-24T06:08:19.261Z,98354.05
2023-05-24T06:09:47.259Z,98355.77
2023-05-24T06:11:09.930Z,98357.19
2023-05-24T06:12:40.281Z,98357.77
2023-05-24T06:14:25.477Z,98362.35
2023-05-24T06:15:55.914Z,98364.58
2023-05-24T06:17:18.620Z,98362.51
2023-05-24T06:18:45.056Z,98357.16
2023-05-24T06:20:14.936Z,98363.65
2023-05-24T06:21:49.493Z,98361.30
2023-05-24T06:23:09.863Z,98366.88
2023-05-24T06:24:43.134Z,98365.30
2023-05-24T06:26:22.567Z,98372.41
2023-05-24T06:27:54.648Z,98371.27
2023-05-24T06:29:24.418Z,98378.60
2023-05-24T06:30:54.699Z,98383.05
2023-05-24T06:32:22.272Z,98384.82
2023-05-24T06:33:52.443Z,98393.67
2023-05-24T06:35:34.200Z,98394.42
2023-05-24T06:37:09.767Z,98397.10
2023-05-24T06:38:37.376Z,98398.95
2023-05-24T06:40:09.920Z,98402.79
2023-05-24T06:41:38.372Z,98398.80
2023-05-24T06:43:05.782Z,98408.36
2023-05-24T06:44:43.113Z,98407.56
2023-05-24T06:46:08.016Z,98411.28
2023-05-24T06:47:30.816Z,98417.43
2023-05-24T06:48:51.572Z,98423.01
2023-05-24T06:50:14.421Z,98421.63
2023-05-24T06:51:37.783Z,98422.23
2023-05-24T06:53:02.157Z,98428.11
2023-05-24T06:54:36.920Z,98425.30
2023-05-24T06:56:04.918Z,98425.45
2023-05-24T06:57:26.157Z,98422.70
2023-05-24T06:59:09.893Z,98425.45
2023-05-24T07:00:45.464Z,98426.58
2023-05-24T07:02:15.712Z,98429.42
2023-05-24T07:04:07.335Z,98429.95
2023-05-24T07:05:41.650Z,98434.58
2023-05-24T07:07:13.817Z,98440.19
2023-05-24T07:08:48.510Z,98439.62
2023-05-24T07:10:08.339Z,98440.94
2023-05-24T07:11:40.591Z,98447.16
2023-05-24T07:13:12.841Z,98441.99
2023-05-24T07:14:35.588Z,98445.10
2023-05-24T07:16:09.419Z,98450.27
2023-05-24T07:17:53.118Z,98453.63
2023-05-24T07:19:40.182Z,98452.61
2023-05-24T07:21:14.409Z,98457.52
2023-05-24T07:22:46.200Z,98458.58
2023-05-24T07:24:08.394Z,98459.76
2023-05-24T07:25:31.328Z,98459.79
2023-05-24T07:26:53.024Z,98463.16
2023-05-24T07:28:37.227Z,98461.64
2023-05-24T07:30:31.578Z,98460.59
2023-05-24T07:31:55.216Z,98462.83
2023-05-24T07:33:28.576Z,98471.23
2023-05-24T07:35:13.465Z,98472.39
2023-05-24T07:36:36.461Z,98472.81
2023-05-24T07:38:08.278Z,98470.46
2023-05-24T07:39:28.471Z,98473.08
2023-05-24T07:40:51.387Z,98472.57
2023-05-24T07:42:23.230Z,98472.56
2023-05-24T07:43:46.301Z,98472.08
2023-05-24T07:45:20.438Z,98479.09
2023-05-24T07:46:54.965Z,98478.50
2023-05-24T07:48:39.177Z,98483.16
2023-05-24T07:50:11.206Z,98480.48
2023-05-24T07:51:45.419Z,98484.48
2023-05-24T07:53:19.551Z,98486.22
2023-05-24T07:54:39.858Z,98483.02
2023-05-24T07:56:09.604Z,98483.63
2023-05-24T07:57:44.652Z,98494.28
2023-05-24T07:59:04.619Z,98495.56
2023-05-24T08:00:28.872Z,98496.98
2023-05-24T08:02:00.735Z,98500.85
2023-05-24T08:03:36.277Z,98505.39
2023-05-24T08:05:08.987Z,98509.69
2023-05-24T08:06:31.387Z,98510.67
2023-05-24T08:08:03.272Z,98515.23
2023-05-24T08:09:38.753Z,98517.36
2023-05-24T08:11:01.359Z,98515.55
2023-05-24T08:12:33.354Z,98516.40
2023-05-24T08:14:17.038Z,98516.39
2023-05-24T08:15:39.882Z,98521.21
2023-05-24T08:17:11.931Z,98519.37
2023-05-24T08:18:32.514Z,98519.64
2023-05-24T08:20:05.704Z,98523.50
2023-05-24T08:21:28.513Z,98514.45
2023-05-24T08:22:59.031Z,98523.92
2023-05-24T08:24:19.425Z,98529.75
2023-05-24T08:26:04.293Z,98533.88
2023-05-24T08:27:36.504Z,98537.42
2023-05-24T08:29:06.251Z,98537.73
2023-05-24T08:30:26.822Z,98541.06
2023-05-24T08:32:10.938Z,98542.45
2023-05-24T08:33:56.859Z,98542.52
2023-05-24T08:35:22.243Z,98542.48
2023-05-24T08:36:43.251Z,98542.82
2023-05-24T08:38:15.136Z,98543.42
2023-05-24T08:39:47.768Z,98541.64
2023-05-24T08:41:07.878Z,98545.21
2023-05-24T08:42:35.776Z,98545.41
2023-05-24T08:43:56.406Z,98537.91
2023-05-24T08:45:23.841Z,98546.86
2023-05-24T08:46:51.864Z,98550.70
2023-05-24T08:48:17.471Z,98555.38
2023-05-24T08:49:51.835Z,98555.32
2023-05-24T08:51:26.677Z,98555.64
2023-05-24T08:53:16.526Z,98552.86
2023-05-24T08:54:39.300Z,98550.40
2023-05-24T08:56:02.214Z,98553.16
2023-05-24T08:57:30.014Z,98541.20
2023-05-24T08:58:50.661Z,98552.06
2023-05-24T09:00:30.329Z,98555.20
2023-05-24T09:01:51.283Z,98555.17
2023-05-24T09:03:12.319Z,98561.46
2023-05-24T09:04:44.486Z,98553.47
2023-05-24T09:06:28.252Z,98554.10
2023-05-24T09:07:48.838Z,98564.05
2023-05-24T09:09:24.401Z,98560.35
2023-05-24T09:10:54.996Z,98560.47
2023-05-24T09:12:36.722Z,98563.40
2023-05-24T09:14:12.910Z,98568.21
2023-05-24T09:15:56.580Z,98566.70
2023-05-24T09:17:19.427Z,98566.61
2023-05-24T09:18:52.300Z,98565.67
2023-05-24T09:20:13.079Z,98570.66
2023-05-24T09:23:37.021Z,98569.75
2023-05-24T09:25:22.561Z,98569.63
2023-05-24T09:26:52.067Z,98580.39
2023-05-24T09:28:15.847Z,98582.10
2023-05-24T09:29:51.697Z,98583.80
2023-05-24T09:31:23.520Z,98586.80
2023-05-24T09:32:50.193Z,98591.43
2023-05-24T09:34:19.682Z,98587.94
2023-05-24T09:35:53.458Z,98595.73
2023-05-24T09:37:26.927Z,98596.28
2023-05-24T09:39:03.599Z,98603.73
2023-05-24T09:40:25.673Z,98602.23
2023-05-24T09:41:54.650Z,98605.77
2023-05-24T09:43:41.812Z,98602.34
2023-05-24T09:45:15.127Z,98605.21
2023-05-24T09:46:38.595Z,98611.15
2023-05-24T09:48:12.632Z,98608.51
2023-05-24T09:49:36.824Z,98604.77
2023-05-24T09:51:03.173Z,98604.07
2023-05-24T09:52:36.680Z,98608.30
2023-05-24T09:54:17.350Z,98607.03
2023-05-24T09:55:53.402Z,98609.23
2023-05-24T09:57:36.358Z,98610.04
2023-05-24T09:59:02.545Z,98614.18
2023-05-24T10:00:36.898Z,98610.38
2023-05-24T10:02:12.380Z,98609.27
2023-05-24T10:03:46.975Z,98614.48
2023-05-24T10:05:20.699Z,98613.81
2023-05-24T10:06:44.666Z,98613.76
2023-05-24T10:08:21.501Z,98621.45
2023-05-24T10:09:45.843Z,98615.23
2023-05-24T10:11:14.799Z,98619.30
2023-05-24T10:12:48.163Z,98619.63
2023-05-24T10:14:09.895Z,98623.14
2023-05-24T10:15:55.487Z,98620.82
2023-05-24T10:17:28.049Z,98621.09
2023-05-24T10:19:12.836Z,98619.92
2023-05-24T10:20:40.144Z,98624.08
2023-05-24T10:22:16.830Z,98622.85
2023-05-24T10:23:38.524Z,98628.77
2023-05-24T10:25:21.633Z,98627.77
2023-05-24T10:26:56.025Z,98630.48
2023-05-24T10:28:20.122Z,98628.61
2023-05-24T10:30:12.188Z,98631.95
2023-05-24T10:32:05.221Z,98637.52
2023-05-24T10:33:46.388Z,98638.87
2023-05-24T10:35:27.408Z,98639.84
2023-05-24T10:37:01.587Z,98648.05
2023-05-24T10:38:28.577Z,98649.86
2023-05-24T10:40:14.038Z,98652.80
2023-05-24T10:41:40.592Z,98654.98
2023-05-24T10:43:16.809Z,98658.33
2023-05-24T10:44:50.564Z,98658.83
2023-05-24T10:46:30.856Z,98657.79
2023-05-24T10:48:05.129Z,98653.14
2023-05-24T10:49:50.895Z,98657.04
2023-05-24T10:51:15.140Z,98657.50
2023-05-24T10:52:48.800Z,98658.80
2023-05-24T10:54:17.964Z,98654.52
2023-05-24T10:55:52.573Z,98665.94
2023-05-24T10:57:25.794Z,98664.68
2023-05-24T10:58:59.623Z,98665.47
2023-05-24T11:00:36.087Z,98667.95
2023-05-24T11:02:08.618Z,98665.73
2023-05-24T11:03:33.101Z,98668.20
2023-05-24T11:05:06.773Z,98664.79
2023-05-24T11:06:41.311Z,98670.65
2023-05-24T11:08:14.728Z,98672.74
2023-05-24T11:10:02.995Z,98662.92
2023-05-24T11:11:37.050Z,98674.11
2023-05-24T11:13:10.885Z,98672.07
2023-05-24T11:14:52.329Z,98674.23
2023-05-24T11:16:27.588Z,98670.65
2023-05-24T11:18:13.108Z,98678.07
2023-05-24T11:19:35.280Z,98673.86
2023-05-24T11:20:59.802Z,98675.85
2023-05-24T11:22:33.308Z,98682.56
2023-05-24T11:24:00.198Z,98681.73
2023-05-24T11:25:32.343Z,98683.30
2023-05-24T11:27:06.195Z,98684.49
2023-05-24T11:28:37.327Z,98686.36
2023-05-24T11:30:10.907Z,98684.17
2023-05-24T11:31:46.864Z,98684.00
2023-05-24T11:33:22.918Z,98683.34
2023-05-24T11:35:04.157Z,98680.21
2023-05-24T11:36:40.049Z,98683.05
2023-05-24T11:38:04.302Z,98685.12
2023-05-24T11:39:30.615Z,98685.79
2023-05-24T11:41:04.140Z,98686.34
2023-05-24T11:42:37.605Z,98683.13
2023-05-24T11:44:00.178Z,98682.70
2023-05-24T11:45:35.704Z,98688.86
2023-05-24T11:47:30.134Z,98687.02
2023-05-24T11:49:06.059Z,98688.13
2023-05-24T11:50:51.534Z,98691.42
2023-05-24T11:52:15.980Z,98690.56
2023-05-24T11:53:50.834Z,98690.81
2023-05-24T11:55:16.622Z,98683.95
2023-05-24T11:56:51.611Z,98687.05
2023-05-24T11:58:27.252Z,98694.16
2023-05-24T11:59:54.301Z,98696.61
2023-05-24T12:01:16.375Z,98700.86
2023-05-24T12:03:01.614Z,98699.66
2023-05-24T12:04:31.427Z,98698.83
2023-05-24T12:06:09.002Z,98706.59
2023-05-24T12:07:48.828Z,98702.27
2023-05-24T12:09:16.608Z,98701.65
2023-05-24T12:10:43.311Z,98706.17
2023-05-24T12:12:12.865Z,98706.33
2023-05-24T12:13:46.736Z,98708.89
2023-05-24T12:15:27.462Z,98709.07
2023-05-24T12:17:07.842Z,98709.23
2023-05-24T12:18:29.931Z,98711.48
2023-05-24T12:20:03.603Z,98712.70
2023-05-24T12:21:25.823Z,98708.58
2023-05-24T12:22:47.508Z,98720.56
2023-05-24T12:24:21.079Z,98722.30
2023-05-24T12:25:54.505Z,98725.86
2023-05-24T12:27:28.344Z,98729.83
2023-05-24T12:29:02.008Z,98729.88
2023-05-24T12:30:42.977Z,98731.06
2023-05-24T12:32:13.913Z,98732.52
2023-05-24T12:33:36.259Z,98730.08
2023-05-24T12:35:09.913Z,98734.77
2023-05-24T12:36:43.166Z,98739.65
2023-05-24T12:38:05.252Z,98740.29
2023-05-24T12:39:45.956Z,98742.80
2023-05-24T12:41:17.387Z,98737.55
2023-05-24T12:42:41.798Z,98740.38
2023-05-24T12:44:03.390Z,98740.89
2023-05-24T12:45:37.511Z,98743.53
2023-05-24T12:47:23.436Z,98738.89
2023-05-24T12:48:47.861Z,98743.09
2023-05-24T12:50:12.905Z,98746.04
2023-05-24T12:51:45.658Z,98741.93
2023-05-24T12:53:29.421Z,98743.95
2023-05-24T12:54:56.595Z,98744.76
2023-05-24T12:56:32.675Z,98738.13
2023-05-24T12:58:14.158Z,98739.61
2023-05-24T12:59:48.329Z,98742.38
2023-05-24T13:01:33.722Z,98738.98
2023-05-24T13:03:00.227Z,98741.66
2023-05-24T13:04:45.457Z,98747.71
2023-05-24T13:06:09.513Z,98745.85
2023-05-24T13:07:42.805Z,98746.33
2023-05-24T13:09:12.107Z,98740.89
2023-05-24T13:10:57.379Z,98744.27
2023-05-24T13:12:27.675Z,98740.17
2023-05-24T13:14:08.691Z,98745.69
2023-05-24T13:15:34.960Z,98744.77
2023-05-24T13:17:19.979Z,98744.17
2023-05-24T13:19:05.175Z,98745.63
2023-05-24T13:20:34.221Z,98748.61
2023-05-24T13:22:08.002Z,98744.42
2023-05-24T13:23:43.236Z,98741.30
2023-05-24T13:25:15.138Z,98743.20
2023-05-24T13:26:49.324Z,98737.84
2023-05-24T13:28:35.608Z,98738.86
2023-05-24T13:30:00.763Z,98735.83
2023-05-24T13:31:37.938Z,98740.20
2023-05-24T13:33:14.504Z,98738.91
2023-05-24T13:34:39.385Z,98737.95
2023-05-24T13:36:19.213Z,98734.36
2023-05-24T13:37:52.641Z,98736.10
2023-05-24T13:39:28.787Z,98734.66
2023-05-24T13:41:03.062Z,98735.13
2023-05-24T13:42:48.077Z,98734.71
2023-05-24T13:44:22.059Z,98735.36
2023-05-24T13:46:04.734Z,98728.88
2023-05-24T13:47:39.472Z,98737.98
2023-05-24T13:49:17.796Z,98736.56
2023-05-24T13:50:51.404Z,98739.38
2023-05-24T13:52:27.101Z,98739.19
2023-05-24T13:54:11.953Z,98742.52
2023-05-24T13:55:46.146Z,98741.53
2023-05-24T13:57:19.451Z,98744.65
2023-05-24T13:58:55.424Z,98720.43
2023-05-24T14:00:28.526Z,98742.93
2023-05-24T14:02:09.318Z,98747.80
2023-05-24T14:03:43.165Z,98741.13
2023-05-24T14:05:28.559Z,98739.98
2023-05-24T14:07:18.537Z,98739.83
2023-05-24T14:09:12.206Z,98738.00
2023-05-24T14:10:48.123Z,98736.90
2023-05-24T14:12:21.688Z,98729.81
2023-05-24T14:14:58.004Z,98735.86
2023-05-24T14:15:53.683Z,98737.17
2023-05-24T14:17:18.089Z,98736.49
2023-05-24T14:18:51.566Z,98728.02
2023-05-24T14:20:25.151Z,98733.66
2023-05-24T14:21:58.605Z,98732.55
2023-05-24T14:23:39.533Z,98733.38
2023-05-24T14:25:13.190Z,98737.48
2023-05-24T14:26:49.577Z,98738.80
2023-05-24T14:28:13.724Z,98737.39
2023-05-24T14:29:47.571Z,98739.73
2023-05-24T14:31:23.299Z,98746.08
2023-05-24T14:32:54.875Z,98749.05
2023-05-24T14:34:24.007Z,98749.56
2023-05-24T14:35:46.406Z,98751.27
2023-05-24T14:37:13.212Z,98740.23
2023-05-24T14:38:36.145Z,98749.35
2023-05-24T14:40:01.116Z,98756.61
2023-05-24T14:41:34.504Z,98760.02
2023-05-24T14:42:56.367Z,98755.40
2023-05-24T14:44:29.663Z,98754.30
2023-05-24T14:45:59.183Z,98749.83
2023-05-24T14:47:35.822Z,98752.25
2023-05-24T14:49:17.368Z,98751.13
2023-05-24T14:51:02.828Z,98755.63
2023-05-24T14:52:27.196Z,98751.80
2023-05-24T14:53:49.647Z,98752.48
2023-05-24T14:55:25.514Z,98755.66
2023-05-24T14:56:59.472Z,98755.70
2023-05-24T14:58:23.201Z,98756.81
2023-05-24T14:59:49.655Z,98756.11
2023-05-24T15:01:13.578Z,98759.25
2023-05-24T15:02:54.507Z,98760.50
2023-05-24T15:04:24.202Z,98759.07
2023-05-24T15:05:51.178Z,98761.42
2023-05-24T15:07:37.078Z,98764.98
2023-05-24T15:09:13.591Z,98766.36
2023-05-24T15:10:46.783Z,98769.33
2023-05-24T15:12:13.304Z,98770.67
2023-05-24T15:13:38.421Z,98767.90
2023-05-24T15:15:19.825Z,98768.36
2023-05-24T15:16:53.721Z,98769.80
2023-05-24T15:18:28.053Z,98766.58
2023-05-24T15:20:05.028Z,98766.61
2023-05-24T15:21:56.254Z,98768.68
2023-05-24T15:23:29.843Z,98768.41
2023-05-24T15:24:52.115Z,98772.56
2023-05-24T15:26:14.109Z,98771.61
2023-05-24T15:27:47.772Z,98771.77
2023-05-24T15:29:21.208Z,98768.06
2023-05-24T15:31:06.740Z,98769.45
2023-05-24T15:32:42.809Z,98770.34
2023-05-24T15:34:07.319Z,98770.71
2023-05-24T15:35:31.829Z,98770.54
2023-05-24T15:37:01.413Z,98768.86
2023-05-24T15:38:42.413Z,98772.92
2023-05-24T15:40:31.134Z,98775.08
2023-05-24T15:42:11.661Z,98772.84
2023-05-24T15:43:45.131Z,98770.17
2023-05-24T15:45:30.278Z,98769.09
2023-05-24T15:47:15.349Z,98766.45
2023-05-24T15:48:44.842Z,98766.38
2023-05-24T15:50:31.736Z,98768.11
2023-05-24T15:52:03.638Z,98767.44
2023-05-24T15:53:50.209Z,98766.06
2023-05-24T15:55:35.000Z,98767.52
2023-05-24T15:57:03.944Z,98770.64
2023-05-24T15:58:49.165Z,98773.73
2023-05-24T16:00:29.585Z,98775.21
2023-05-24T16:02:10.375Z,98777.98
2023-05-24T16:03:43.810Z,98781.27
2023-05-24T16:05:21.063Z,98784.56
2023-05-24T16:06:46.049Z,98791.61
2023-05-24T16:08:19.599Z,98794.55
2023-05-24T16:10:00.492Z,98796.35
2023-05-24T16:11:30.302Z,98792.65
2023-05-24T16:13:06.159Z,98798.34
2023-05-24T16:14:28.143Z,98796.28
2023-05-24T16:15:57.420Z,98795.71
2023-05-24T16:17:27.017Z,98803.22
2023-05-24T16:19:00.707Z,98805.73
2023-05-24T16:20:36.678Z,98806.90
2023-05-24T16:22:22.455Z,98812.20
2023-05-24T16:23:55.970Z,98809.11
2023-05-24T16:25:27.679Z,98811.92
2023-05-24T16:26:52.229Z,98811.55
2023-05-24T16:28:33.376Z,98809.95
2023-05-24T16:29:58.207Z,98810.64
2023-05-24T16:31:22.888Z,98809.23
2023-05-24T16:32:57.239Z,98809.86
2023-05-24T16:34:23.771Z,98807.36
2023-05-24T16:36:00.475Z,98810.30
2023-05-24T16:37:26.280Z,98808.11
2023-05-24T16:38:59.878Z,98810.44
2023-05-24T16:40:29.544Z,98811.23
2023-05-24T16:41:54.103Z,98813.51
2023-05-24T16:43:39.417Z,98817.06
2023-05-24T16:45:34.158Z,98818.85
2023-05-24T16:47:03.405Z,98817.68
2023-05-24T16:48:43.240Z,98817.71
2023-05-24T16:50:15.234Z,98820.20
2023-05-24T16:51:56.484Z,98819.27
2023-05-24T16:53:23.004Z,98819.61
2023-05-24T16:54:56.955Z,98824.91
2023-05-24T16:56:27.275Z,98824.30
2023-05-24T16:58:03.520Z,98825.75
2023-05-24T16:59:28.656Z,98833.08
2023-05-24T17:01:09.635Z,98831.89
2023-05-24T17:02:43.586Z,98830.14
2023-05-24T17:04:24.699Z,98819.91
2023-05-24T17:06:13.615Z,98833.67
2023-05-24T17:08:00.900Z,98834.22
2023-05-24T17:09:49.184Z,98837.20
2023-05-24T17:11:29.542Z,98841.96
2023-05-24T17:13:03.681Z,98844.42
2023-05-24T17:14:48.981Z,98847.16
2023-05-24T17:16:14.022Z,98848.63
2023-05-24T17:17:59.331Z,98849.14
2023-05-24T17:19:36.640Z,98853.47
2023-05-24T17:21:13.065Z,98851.55
2023-05-24T17:22:49.103Z,98854.28
2023-05-24T17:24:34.778Z,98856.20
2023-05-24T17:26:09.506Z,98859.54
2023-05-24T17:27:44.075Z,98857.95
2023-05-24T17:29:39.175Z,98858.30
2023-05-24T17:31:12.823Z,98857.68
2023-05-24T17:32:41.957Z,98849.80
2023-05-24T17:34:04.628Z,98853.05
2023-05-24T17:35:38.368Z,98853.62
2023-05-24T17:37:00.203Z,98853.92
2023-05-24T17:38:24.538Z,98861.35
2023-05-24T17:39:54.060Z,98861.82
2023-05-24T17:41:16.875Z,98865.27
2023-05-24T17:42:50.899Z,98859.52
2023-05-24T17:44:36.438Z,98880.66
2023-05-24T17:46:06.309Z,98886.25
2023-05-24T17:47:39.547Z,98881.47
2023-05-24T17:49:17.227Z,98883.27
2023-05-24T17:50:39.215Z,98883.56
2023-05-24T17:52:16.066Z,98883.27
2023-05-24T17:53:53.231Z,98880.73
2023-05-24T17:55:27.456Z,98881.98
2023-05-24T17:56:57.222Z,98884.39
2023-05-24T17:58:44.083Z,98886.19
2023-05-24T18:00:17.490Z,98886.11
2023-05-24T18:01:46.496Z,98886.95
2023-05-24T18:03:11.248Z,98880.19
2023-05-24T18:04:56.797Z,98883.65
2023-05-24T18:06:18.412Z,98879.89
2023-05-24T18:07:52.203Z,98879.02
2023-05-24T18:09:37.528Z,98879.52
2023-05-24T18:11:12.595Z,98878.29
2023-05-24T18:12:53.414Z,98870.20
2023-05-24T18:14:38.408Z,98877.60
2023-05-24T18:16:23.639Z,98879.27
2023-05-24T18:18:01.672Z,98878.95